Lady Eman — 5IM513 — position and weather

sailwx.info

Track history (hours):
 
Tides and Currents Weather Stations Pressure Air Temp Water Temp Dewpoint Dewpoint Depression Visibility Wind Speed Wind Dir Waves Ship Positions

Lady Eman

Last reported at 2015-Jun-28 20:13 UTC. Time now 2015-Jul-04 22:30 UTC.
Position N 34°16' E 032°54'.

Length 92 m; draft 7.6 m.

Type: Cargo ship. MMSI: 677041300.

Date/timePositionNaut miles runAvg speedWind from/ knotsBaromVisibWave heightAir tempDewpointWater temp
2015-Jun-28 20:13N 34°16' E 032°54'4 5.9
2015-Jun-28 19:33N 34°19' E 032°57'6 6.2
2015-Jun-28 18:33N 34°24' E 033°01'6 6.4
2015-Jun-28 17:33N 34°30' E 033°03'7 6.8
2015-Jun-28 16:33N 34°37' E 033°04'3 0.5
2015-Jun-28 10:22N 34°40' E 033°04'2 2.8
2015-Jun-28 09:33N 34°38' E 033°05'5 5.4
2015-Jun-28 08:33N 34°32' E 033°06'5 4.8
2015-Jun-28 07:33N 34°30' E 033°01'6 5.9
2015-Jun-28 06:33N 34°30' E 032°54'5 5.2
2015-Jun-28 05:33N 34°31' E 032°47'5 5.1
2015-Jun-28 04:33N 34°32' E 032°41'6 5.8
2015-Jun-28 03:32N 34°32' E 032°34'6 5.8
2015-Jun-28 02:26N 34°34' E 032°26'  
Track history (hours):
 
Tides and Currents Weather Stations Pressure Air Temp Water Temp Dewpoint Dewpoint Depression Visibility Wind Speed Wind Dir Waves Ship Positions

Lady Eman

Last reported at 2015-Jun-28 20:13 UTC. Time now 2015-Jul-04 22:30 UTC.
Position N 34°16' E 032°54'.

Length 92 m; draft 7.6 m.

Type: Cargo ship. MMSI: 677041300.

Date/timePositionNaut miles runAvg speedWind from/ knotsBaromVisibWave heightAir tempDewpointWater temp
2015-Jun-28 20:13N 34°16' E 032°54'4 5.9
2015-Jun-28 19:33N 34°19' E 032°57'6 6.2
2015-Jun-28 18:33N 34°24' E 033°01'6 6.4
2015-Jun-28 17:33N 34°30' E 033°03'7 6.8
2015-Jun-28 16:33N 34°37' E 033°04'3 0.5
2015-Jun-28 10:22N 34°40' E 033°04'2 2.8
2015-Jun-28 09:33N 34°38' E 033°05'5 5.4
2015-Jun-28 08:33N 34°32' E 033°06'5 4.8
2015-Jun-28 07:33N 34°30' E 033°01'6 5.9
2015-Jun-28 06:33N 34°30' E 032°54'5 5.2
2015-Jun-28 05:33N 34°31' E 032°47'5 5.1
2015-Jun-28 04:33N 34°32' E 032°41'6 5.8
2015-Jun-28 03:32N 34°32' E 032°34'6 5.8
2015-Jun-28 02:26N 34°34' E 032°26'  

Dump ship's entire track history